createdAt,value
2024-05-09T00:00:39.293Z,9.1
2024-05-09T00:02:51.983Z,9
2024-05-09T00:05:01.849Z,9
2024-05-09T00:07:11.688Z,9
2024-05-09T00:09:21.526Z,9
2024-05-09T00:11:33.894Z,9
2024-05-09T00:13:43.869Z,8.9
2024-05-09T00:15:53.767Z,8.9
2024-05-09T00:18:04.043Z,8.9
2024-05-09T00:20:17.573Z,8.9
2024-05-09T00:22:35.814Z,8.9
2024-05-09T00:24:45.572Z,8.8
2024-05-09T00:26:57.943Z,8.8
2024-05-09T00:29:07.763Z,8.8
2024-05-09T00:31:17.638Z,8.8
2024-05-09T00:33:27.747Z,8.7
2024-05-09T00:35:38.366Z,8.6
2024-05-09T00:37:48.546Z,8.6
2024-05-09T00:39:58.391Z,8.5
2024-05-09T00:42:11.099Z,8.5
2024-05-09T00:44:21.204Z,8.4
2024-05-09T00:46:31.371Z,8.4
2024-05-09T00:48:41.282Z,8.4
2024-05-09T00:50:54.346Z,8.4
2024-05-09T00:53:04.621Z,8.4
2024-05-09T00:55:14.662Z,8.4
2024-05-09T00:57:28.389Z,8.4
2024-05-09T00:59:38.554Z,8.3
2024-05-09T01:01:49.183Z,8.3
2024-05-09T01:03:59.354Z,8.3
2024-05-09T01:06:09.258Z,8.3
2024-05-09T01:08:19.229Z,8.3
2024-05-09T01:10:32.254Z,8.2
2024-05-09T01:12:48.619Z,8.2
2024-05-09T01:14:58.403Z,8.3
2024-05-09T01:17:09.040Z,8.3
2024-05-09T01:19:26.149Z,8.2
2024-05-09T01:21:36.174Z,8.2
2024-05-09T01:23:50.651Z,8.2
2024-05-09T01:26:00.642Z,8.2
2024-05-09T01:28:08.199Z,8.1
2024-05-09T01:30:21.267Z,8.1
2024-05-09T01:32:35.915Z,8
2024-05-09T01:34:45.758Z,8
2024-05-09T01:36:55.856Z,7.9
2024-05-09T01:39:08.290Z,7.9
2024-05-09T01:41:18.074Z,7.9
2024-05-09T01:43:28.179Z,7.9
2024-05-09T01:45:38.100Z,7.9
2024-05-09T01:47:48.150Z,7.9
2024-05-09T01:49:58.095Z,7.9
2024-05-09T01:52:09.924Z,7.9
2024-05-09T01:54:22.852Z,7.8
2024-05-09T01:56:32.837Z,7.8
2024-05-09T01:58:42.793Z,7.8
2024-05-09T02:00:52.823Z,7.8
2024-05-09T02:03:03.002Z,7.7
2024-05-09T02:05:12.905Z,7.7
2024-05-09T02:07:22.748Z,7.7
2024-05-09T02:09:38.077Z,7.7
2024-05-09T02:11:50.497Z,7.7
2024-05-09T02:14:00.724Z,7.7
2024-05-09T02:16:15.376Z,7.6
2024-05-09T02:18:25.397Z,7.5
2024-05-09T02:20:36.483Z,7.5
2024-05-09T02:22:48.269Z,7.4
2024-05-09T02:25:00.740Z,7.4
2024-05-09T02:27:10.846Z,7.4
2024-05-09T02:29:18.113Z,7.4
2024-05-09T02:31:27.929Z,7.4
2024-05-09T02:33:38.263Z,7.3
2024-05-09T02:35:48.342Z,7.3
2024-05-09T02:37:55.777Z,7.3
2024-05-09T02:40:11.699Z,7.3
2024-05-09T02:42:23.164Z,7.3
2024-05-09T02:44:32.957Z,7.3
2024-05-09T02:46:40.723Z,7.2
2024-05-09T02:48:50.710Z,7.2
2024-05-09T02:50:57.988Z,7.2
2024-05-09T02:53:08.462Z,7.2
2024-05-09T02:55:20.247Z,7.2
2024-05-09T02:57:30.022Z,7.2
2024-05-09T02:59:37.206Z,7.1
2024-05-09T03:01:47.327Z,7.2
2024-05-09T03:03:54.810Z,7.2
2024-05-09T03:06:05.596Z,7.1
2024-05-09T03:08:13.139Z,7.1
2024-05-09T03:10:28.474Z,7.1
2024-05-09T03:12:39.192Z,7.1
2024-05-09T03:14:53.567Z,7.1
2024-05-09T03:17:01.639Z,7.1
2024-05-09T03:19:12.714Z,7.1
2024-05-09T03:21:20.859Z,7.1
2024-05-09T03:23:31.183Z,7.1
2024-05-09T03:25:41.345Z,7.1
2024-05-09T03:27:51.567Z,7.1
2024-05-09T03:29:59.183Z,7.1
2024-05-09T03:32:09.788Z,7
2024-05-09T03:34:17.264Z,7
2024-05-09T03:36:27.142Z,7
2024-05-09T03:38:40.696Z,7
2024-05-09T03:40:53.668Z,7
2024-05-09T03:43:03.674Z,6.9
2024-05-09T03:45:11.031Z,6.9
2024-05-09T03:47:20.862Z,6.9
2024-05-09T03:49:28.913Z,6.9
2024-05-09T03:51:38.988Z,6.9
2024-05-09T03:53:46.216Z,6.9
2024-05-09T03:55:59.509Z,6.9
2024-05-09T03:58:08.202Z,7
2024-05-09T04:00:25.718Z,7
2024-05-09T04:02:43.777Z,6.9
2024-05-09T04:04:53.795Z,7
2024-05-09T04:07:01.062Z,7
2024-05-09T04:09:10.874Z,7
2024-05-09T04:11:20.729Z,7.1
2024-05-09T04:13:30.574Z,7.1
2024-05-09T04:15:37.987Z,7.1
2024-05-09T04:17:51.782Z,7
2024-05-09T04:19:59.131Z,7.1
2024-05-09T04:22:10.125Z,7.1
2024-05-09T04:24:17.337Z,7.2
2024-05-09T04:26:29.830Z,7.2
2024-05-09T04:28:37.100Z,7.3
2024-05-09T04:30:44.542Z,7.3
2024-05-09T04:32:54.621Z,7.3
2024-05-09T04:35:02.265Z,7.5
2024-05-09T04:37:12.143Z,7.9
2024-05-09T04:39:19.506Z,8.4
2024-05-09T04:41:32.097Z,8.9
2024-05-09T04:43:39.445Z,9.5
2024-05-09T04:45:49.460Z,10
2024-05-09T04:47:57.127Z,10.5
2024-05-09T04:50:11.680Z,10.9
2024-05-09T04:52:23.075Z,11.1
2024-05-09T04:54:35.950Z,11.3
2024-05-09T04:56:48.324Z,11.4
2024-05-09T04:58:58.271Z,11.5
2024-05-09T05:01:06.030Z,11.6
2024-05-09T05:03:16.359Z,11.6
2024-05-09T05:05:24.318Z,11.5
2024-05-09T05:07:34.418Z,11.4
2024-05-09T05:09:41.676Z,11.4
2024-05-09T05:11:55.201Z,11.4
2024-05-09T05:14:02.479Z,11.4
2024-05-09T05:16:13.336Z,11.3
2024-05-09T05:18:21.864Z,11.3
2024-05-09T05:20:33.495Z,11.3
2024-05-09T05:22:43.832Z,11.3
2024-05-09T05:24:54.356Z,11.3
2024-05-09T05:27:04.638Z,11.4
2024-05-09T05:29:15.525Z,11.5
2024-05-09T05:31:25.190Z,11.6
2024-05-09T05:33:35.041Z,11.8
2024-05-09T05:35:42.791Z,11.9
2024-05-09T05:37:52.878Z,12
2024-05-09T05:40:00.123Z,12.1
2024-05-09T05:42:12.573Z,12.2
2024-05-09T05:44:20.135Z,12.3
2024-05-09T05:46:30.309Z,12.3
2024-05-09T05:48:37.563Z,12.4
2024-05-09T05:50:47.809Z,12.5
2024-05-09T05:52:55.187Z,12.7
2024-05-09T05:55:05.379Z,12.8
2024-05-09T05:57:15.521Z,13
2024-05-09T05:59:25.443Z,13.1
2024-05-09T06:01:32.815Z,13.2
2024-05-09T06:03:42.854Z,13.4
2024-05-09T06:05:50.235Z,13.5
2024-05-09T06:08:00.243Z,13.7
2024-05-09T06:10:14.192Z,13.8
2024-05-09T06:12:35.548Z,14
2024-05-09T06:14:42.902Z,14.2
2024-05-09T06:16:54.679Z,14.3
2024-05-09T06:19:05.195Z,14.4
2024-05-09T06:21:15.268Z,14.6
2024-05-09T06:23:22.688Z,14.7
2024-05-09T06:25:32.683Z,14.9
2024-05-09T06:27:42.602Z,14.9
2024-05-09T06:29:52.615Z,15
2024-05-09T06:32:00.328Z,15.2
2024-05-09T06:34:10.425Z,15.2
2024-05-09T06:36:17.953Z,15.3
2024-05-09T06:38:27.973Z,15.3
2024-05-09T06:40:37.015Z,15.4
2024-05-09T06:42:54.286Z,15.5
2024-05-09T06:45:01.482Z,15.5
2024-05-09T06:47:11.781Z,15.7
2024-05-09T06:49:19.304Z,15.8
2024-05-09T06:51:29.198Z,15.9
2024-05-09T06:53:39.605Z,16
2024-05-09T06:55:49.670Z,16
2024-05-09T06:57:59.762Z,16.1
2024-05-09T07:00:15.422Z,16.2
2024-05-09T07:02:28.924Z,16.3
2024-05-09T07:04:39.510Z,16.4
2024-05-09T07:06:46.791Z,16.6
2024-05-09T07:08:56.951Z,16.6
2024-05-09T07:11:04.602Z,16.7
2024-05-09T07:13:18.171Z,16.8
2024-05-09T07:15:25.517Z,16.9
2024-05-09T07:17:35.469Z,17.1
2024-05-09T07:19:43.088Z,17.2
2024-05-09T07:21:53.251Z,17.2
2024-05-09T07:24:00.480Z,17.3
2024-05-09T07:26:10.318Z,17.3
2024-05-09T07:28:21.444Z,17.3
2024-05-09T07:30:33.757Z,17.4
2024-05-09T07:32:45.258Z,17.6
2024-05-09T07:34:55.312Z,17.8
2024-05-09T07:37:02.731Z,17.9
2024-05-09T07:39:12.508Z,18.1
2024-05-09T07:41:19.717Z,18.1
2024-05-09T07:43:32.140Z,18.2
2024-05-09T07:45:45.751Z,18.2
2024-05-09T07:53:13.983Z,18.5
2024-05-09T07:54:57.447Z,18.4
2024-05-09T07:57:08.079Z,18.4
2024-05-09T07:59:17.965Z,18.6
2024-05-09T08:01:28.433Z,18.6
2024-05-09T08:03:35.891Z,18.7
2024-05-09T08:05:45.847Z,18.8
2024-05-09T08:07:53.443Z,19
2024-05-09T08:10:04.317Z,19
2024-05-09T08:12:13.374Z,19.1
2024-05-09T08:14:25.831Z,19
2024-05-09T08:16:33.200Z,19.1
2024-05-09T08:18:43.448Z,19.2
2024-05-09T08:20:51.092Z,19.3
2024-05-09T08:23:00.916Z,19.5
2024-05-09T08:25:08.857Z,19.7
2024-05-09T08:27:22.171Z,19.9
2024-05-09T08:29:33.023Z,20
2024-05-09T08:31:43.097Z,20.1
2024-05-09T08:33:51.343Z,20.3
2024-05-09T08:36:01.314Z,20.4
2024-05-09T08:38:09.069Z,20.5
2024-05-09T08:40:23.570Z,20.6
2024-05-09T08:42:40.491Z,20.7
2024-05-09T08:44:53.404Z,20.8
2024-05-09T08:47:00.783Z,20.9
2024-05-09T08:49:10.968Z,21.1
2024-05-09T08:51:18.323Z,21.2
2024-05-09T08:53:28.376Z,21.2
2024-05-09T08:55:39.314Z,21.3
2024-05-09T08:57:55.202Z,21.2
2024-05-09T09:00:09.967Z,21.2
2024-05-09T09:02:25.879Z,21.3
2024-05-09T09:04:36.932Z,21.3
2024-05-09T09:06:47.225Z,21.5
2024-05-09T09:08:55.624Z,21.6
2024-05-09T09:11:05.887Z,21.6
2024-05-09T09:13:13.240Z,21.4
2024-05-09T09:15:25.792Z,21.6
2024-05-09T09:17:33.100Z,21.7
2024-05-09T09:19:43.290Z,22.1
2024-05-09T09:21:50.631Z,21.9
2024-05-09T09:24:02.791Z,22
2024-05-09T09:26:15.631Z,22.1
2024-05-09T09:28:26.022Z,22.1
2024-05-09T09:30:39.599Z,22.1
2024-05-09T09:32:52.482Z,22.1
2024-05-09T09:34:59.962Z,22
2024-05-09T09:37:11.065Z,22.2
2024-05-09T09:39:20.787Z,22.5
2024-05-09T09:41:34.194Z,22.7
2024-05-09T09:43:42.490Z,22.7
2024-05-09T09:45:56.394Z,22.8
2024-05-09T09:48:05.192Z,23
2024-05-09T09:50:17.048Z,23.1
2024-05-09T09:52:30.325Z,23
2024-05-09T09:54:40.431Z,22.8
2024-05-09T09:56:48.876Z,22.8
2024-05-09T09:59:01.681Z,22.9
2024-05-09T10:01:11.835Z,23
2024-05-09T10:03:21.730Z,23
2024-05-09T10:05:30.096Z,23.2
2024-05-09T10:07:44.558Z,23.2
2024-05-09T10:09:55.514Z,23.3
2024-05-09T10:12:12.636Z,23.2
2024-05-09T10:14:22.835Z,23.2
2024-05-09T10:16:36.559Z,23.3
2024-05-09T10:18:43.959Z,23.3
2024-05-09T10:20:54.818Z,23.4
2024-05-09T10:23:02.526Z,23.5
2024-05-09T10:25:12.796Z,23.4
2024-05-09T10:27:27.266Z,23.3
2024-05-09T10:29:37.178Z,23.4
2024-05-09T10:31:47.942Z,23.3
2024-05-09T10:34:00.718Z,23.3
2024-05-09T10:36:12.030Z,23.3
2024-05-09T10:38:22.266Z,23.4
2024-05-09T10:40:31.531Z,23.5
2024-05-09T10:42:44.495Z,23.6
2024-05-09T10:44:55.950Z,23.4
2024-05-09T10:47:08.546Z,23.3
2024-05-09T10:49:17.232Z,23.2
2024-05-09T10:51:25.162Z,23.3
2024-05-09T10:53:42.628Z,23.4
2024-05-09T10:55:56.743Z,23.6
2024-05-09T10:58:06.767Z,23.7
2024-05-09T11:00:19.331Z,23.5
2024-05-09T11:02:42.189Z,23.3
2024-05-09T11:04:50.386Z,23.4
2024-05-09T11:07:03.803Z,23.7
2024-05-09T11:09:14.939Z,23.6
2024-05-09T11:11:25.179Z,23.5
2024-05-09T11:13:33.375Z,23.5
2024-05-09T11:15:44.332Z,23.5
2024-05-09T11:17:54.550Z,23.5
2024-05-09T11:20:10.558Z,23.6
2024-05-09T11:22:25.334Z,23.5
2024-05-09T11:24:35.874Z,23.6
2024-05-09T11:26:43.746Z,23.8
2024-05-09T11:28:55.083Z,23.8
2024-05-09T11:31:07.540Z,23.8
2024-05-09T11:33:22.144Z,24
2024-05-09T11:35:29.676Z,24
2024-05-09T11:37:41.376Z,24
2024-05-09T11:39:48.941Z,24
2024-05-09T11:41:59.578Z,24.1
2024-05-09T11:44:07.193Z,24.2
2024-05-09T11:46:17.396Z,24.3
2024-05-09T11:48:27.788Z,24.4
2024-05-09T11:50:39.867Z,24.7
2024-05-09T11:52:47.464Z,24.8
2024-05-09T11:54:57.679Z,24.8
2024-05-09T11:57:05.407Z,24.8
2024-05-09T11:59:15.297Z,24.9
2024-05-09T12:01:24.367Z,24.8
2024-05-09T12:03:40.654Z,24.7
2024-05-09T12:05:48.311Z,24.7
2024-05-09T12:07:58.272Z,24.6
2024-05-09T12:10:09.395Z,24.6
2024-05-09T12:12:25.919Z,24.6
2024-05-09T12:14:33.263Z,24.6
2024-05-09T12:16:43.280Z,24.8
2024-05-09T12:18:53.435Z,24.8
2024-05-09T12:21:03.655Z,24.9
2024-05-09T12:23:11.499Z,24.8
2024-05-09T12:25:21.427Z,24.6
2024-05-09T12:27:28.843Z,24.4
2024-05-09T12:29:43.366Z,24.2
2024-05-09T12:31:51.137Z,24.3
2024-05-09T12:34:03.804Z,24.5
2024-05-09T12:36:12.023Z,24.5
2024-05-09T12:38:22.778Z,24.4
2024-05-09T12:40:33.787Z,24.4
2024-05-09T12:42:49.103Z,24.6
2024-05-09T12:44:56.953Z,24.8
2024-05-09T12:47:07.212Z,24.9
2024-05-09T12:49:19.614Z,24.7
2024-05-09T12:51:32.906Z,24.6
2024-05-09T12:53:40.335Z,24.7
2024-05-09T12:55:53.715Z,24.7
2024-05-09T12:58:06.841Z,24.7
2024-05-09T13:00:20.738Z,24.6
2024-05-09T13:02:37.848Z,24.6
2024-05-09T13:04:50.517Z,24.6
2024-05-09T13:06:58.295Z,24.7
2024-05-09T13:09:08.277Z,24.8
2024-05-09T13:11:15.827Z,24.6
2024-05-09T13:13:26.051Z,24.5
2024-05-09T13:15:34.932Z,24.4
2024-05-09T13:17:45.578Z,24.1
2024-05-09T13:19:55.930Z,24.1
2024-05-09T13:22:05.872Z,24.1
2024-05-09T13:24:13.570Z,24.2
2024-05-09T13:26:23.660Z,24.3
2024-05-09T13:28:32.474Z,24.3
2024-05-09T13:30:42.704Z,24.3
2024-05-09T13:32:50.643Z,24.1
2024-05-09T13:35:03.096Z,23.7
2024-05-09T13:37:10.542Z,23.6
2024-05-09T13:39:20.964Z,23.5
2024-05-09T13:41:28.215Z,23.3
2024-05-09T13:43:38.148Z,23.2
2024-05-09T13:45:45.972Z,23.3
2024-05-09T13:47:57.333Z,23.5
2024-05-09T13:50:11.462Z,23.7
2024-05-09T13:52:26.750Z,23.9
2024-05-09T13:54:34.118Z,24
2024-05-09T13:56:42.177Z,24
2024-05-09T13:58:52.625Z,24.2
2024-05-09T14:01:00.007Z,24.2
2024-05-09T14:03:10.294Z,24.3
2024-05-09T14:05:20.403Z,24.2
2024-05-09T14:07:30.329Z,24.2
2024-05-09T14:09:38.009Z,24.1
2024-05-09T14:11:47.978Z,24.2
2024-05-09T14:13:55.520Z,24.3
2024-05-09T14:16:05.546Z,24.4
2024-05-09T14:18:13.923Z,24.5
2024-05-09T14:20:30.977Z,24.5
2024-05-09T14:22:41.585Z,24.4
2024-05-09T14:24:51.444Z,24.4
2024-05-09T14:26:59.101Z,24.3
2024-05-09T14:29:09.034Z,24.2
2024-05-09T14:31:16.391Z,24.1
2024-05-09T14:33:27.169Z,24.1
2024-05-09T14:35:38.346Z,24.1
2024-05-09T14:37:48.704Z,24
2024-05-09T14:39:56.052Z,23.9
2024-05-09T14:42:06.038Z,23.9
2024-05-09T14:44:13.341Z,23.9
2024-05-09T14:46:26.096Z,23.9
2024-05-09T14:48:33.820Z,23.9
2024-05-09T14:50:46.762Z,23.9
2024-05-09T14:52:54.216Z,23.9
2024-05-09T14:55:04.119Z,23.9
2024-05-09T14:57:11.612Z,23.8
2024-05-09T14:59:21.461Z,23.8
2024-05-09T15:01:28.725Z,23.7
2024-05-09T15:03:38.651Z,23.5
2024-05-09T15:05:48.758Z,23.6
2024-05-09T15:08:00.414Z,23.5
2024-05-09T15:10:13.659Z,23.4
2024-05-09T15:12:32.321Z,23.2
2024-05-09T15:14:39.740Z,23
2024-05-09T15:16:50.919Z,22.8
2024-05-09T15:18:58.591Z,22.8
2024-05-09T15:21:11.359Z,22.8
2024-05-09T15:23:18.687Z,22.9
2024-05-09T15:25:28.808Z,23
2024-05-09T15:27:36.190Z,23
2024-05-09T15:29:46.190Z,23
2024-05-09T15:31:53.655Z,22.8
2024-05-09T15:34:04.021Z,22.7
2024-05-09T15:36:14.122Z,22.6
2024-05-09T15:38:23.977Z,22.6
2024-05-09T15:40:37.944Z,22.5
2024-05-09T15:42:52.248Z,22.4
2024-05-09T15:45:01.142Z,22.2
2024-05-09T15:47:11.137Z,22.2
2024-05-09T15:49:18.796Z,22.2
2024-05-09T15:51:31.374Z,22.2
2024-05-09T15:53:38.610Z,22.2
2024-05-09T15:55:48.684Z,22.2
2024-05-09T15:57:55.967Z,22
2024-05-09T16:00:07.734Z,22.1
2024-05-09T16:02:18.067Z,22.1
2024-05-09T16:04:28.328Z,22
2024-05-09T16:06:38.344Z,22
2024-05-09T16:08:50.430Z,22.1
2024-05-09T16:10:58.187Z,22.1
2024-05-09T16:13:05.839Z,22.2
2024-05-09T16:15:15.921Z,22.1
2024-05-09T16:17:23.230Z,22
2024-05-09T16:19:33.139Z,22
2024-05-09T16:21:43.107Z,22
2024-05-09T16:23:53.254Z,22
2024-05-09T16:26:01.329Z,22
2024-05-09T16:28:11.276Z,22
2024-05-09T16:30:24.093Z,21.9
2024-05-09T16:32:44.186Z,21.9
2024-05-09T16:34:51.891Z,21.7
2024-05-09T16:37:06.761Z,21.7
2024-05-09T16:39:14.095Z,21.7
2024-05-09T16:41:24.402Z,21.6
2024-05-09T16:43:31.668Z,21.5
2024-05-09T16:45:44.170Z,21.6
2024-05-09T16:47:51.692Z,21.5
2024-05-09T16:50:01.747Z,21.4
2024-05-09T16:52:11.718Z,21.3
2024-05-09T16:54:21.710Z,21.3
2024-05-09T16:56:29.135Z,21.3
2024-05-09T16:58:39.270Z,21.2
2024-05-09T17:00:46.593Z,21.2
2024-05-09T17:02:57.105Z,21.1
2024-05-09T17:05:05.206Z,21
2024-05-09T17:07:18.026Z,20.9
2024-05-09T17:09:25.304Z,20.8
2024-05-09T17:11:36.024Z,20.7
2024-05-09T17:13:48.391Z,20.7
2024-05-09T17:15:58.395Z,20.6
2024-05-09T17:18:06.839Z,20.6
2024-05-09T17:20:25.543Z,20.5
2024-05-09T17:22:43.874Z,20.4
2024-05-09T17:24:53.866Z,20.3
2024-05-09T17:27:01.449Z,20.2
2024-05-09T17:29:12.435Z,20.2
2024-05-09T17:31:19.883Z,20.2
2024-05-09T17:33:29.782Z,20.1
2024-05-09T17:35:37.804Z,20.1
2024-05-09T17:37:47.959Z,20
2024-05-09T17:39:57.999Z,20
2024-05-09T17:42:06.135Z,19.9
2024-05-09T17:44:16.690Z,19.9
2024-05-09T17:46:24.493Z,19.8
2024-05-09T17:48:34.884Z,19.7
2024-05-09T17:50:42.819Z,19.6
2024-05-09T17:52:55.840Z,19.5
2024-05-09T17:55:04.211Z,19.3
2024-05-09T17:57:14.490Z,19
2024-05-09T17:59:21.768Z,18.7
2024-05-09T18:01:31.805Z,18.5
2024-05-09T18:03:39.793Z,18.3
2024-05-09T18:05:50.145Z,18
2024-05-09T18:08:00.449Z,17.9
2024-05-09T18:10:16.014Z,17.6
2024-05-09T18:12:32.121Z,17.4
2024-05-09T18:14:41.993Z,17.2
2024-05-09T18:16:49.321Z,17
2024-05-09T18:18:59.415Z,16.9
2024-05-09T18:21:07.158Z,16.7
2024-05-09T18:23:20.153Z,16.7
2024-05-09T18:25:27.697Z,16.6
2024-05-09T18:27:37.961Z,16.5
2024-05-09T18:29:45.352Z,16.4
2024-05-09T18:31:56.180Z,16.4
2024-05-09T18:34:03.653Z,16.3
2024-05-09T18:36:13.734Z,16.3
2024-05-09T18:38:27.224Z,16.2
2024-05-09T18:40:38.084Z,16.1
2024-05-09T18:42:46.406Z,16.1
2024-05-09T18:44:56.382Z,16
2024-05-09T18:47:05.439Z,16
2024-05-09T18:49:15.774Z,16
2024-05-09T18:51:23.551Z,16
2024-05-09T18:53:36.364Z,16
2024-05-09T18:55:43.792Z,15.9
2024-05-09T18:57:53.602Z,15.9
2024-05-09T19:00:00.987Z,16
2024-05-09T19:02:10.918Z,16
2024-05-09T19:04:19.426Z,16.1
2024-05-09T19:06:29.864Z,16.2
2024-05-09T19:08:39.832Z,16.2
2024-05-09T19:10:52.643Z,16.2
2024-05-09T19:13:00.182Z,16.2
2024-05-09T19:15:08.366Z,16.2
2024-05-09T19:17:18.309Z,16.2
2024-05-09T19:19:25.829Z,16.1
2024-05-09T19:21:35.873Z,16.1
2024-05-09T19:23:50.490Z,16.1
2024-05-09T19:26:04.192Z,16.1
2024-05-09T19:28:11.520Z,16.1
2024-05-09T19:30:25.488Z,16.1
2024-05-09T19:32:43.886Z,16.1
2024-05-09T19:34:53.789Z,16.1
2024-05-09T19:37:02.732Z,16.1
2024-05-09T19:39:15.209Z,16.1
2024-05-09T19:41:22.808Z,16.1
2024-05-09T19:43:34.666Z,16.1
2024-05-09T19:45:46.803Z,16
2024-05-09T19:47:57.107Z,16
2024-05-09T19:50:08.216Z,15.9
2024-05-09T19:52:23.084Z,15.9
2024-05-09T19:54:32.992Z,15.9
2024-05-09T19:56:45.391Z,15.9
2024-05-09T19:58:52.707Z,16
2024-05-09T20:01:03.184Z,16
2024-05-09T20:03:12.405Z,16
2024-05-09T20:05:22.625Z,16
2024-05-09T20:07:30.282Z,16
2024-05-09T20:09:43.334Z,16
2024-05-09T20:11:50.663Z,16
2024-05-09T20:14:00.746Z,16
2024-05-09T20:16:08.524Z,16
2024-05-09T20:18:20.174Z,16
2024-05-09T20:20:32.067Z,16
2024-05-09T20:22:49.930Z,16
2024-05-09T20:25:00.993Z,16
2024-05-09T20:27:12.518Z,15.9
2024-05-09T20:29:21.208Z,15.9
2024-05-09T20:31:31.150Z,15.9
2024-05-09T20:33:38.952Z,15.9
2024-05-09T20:35:49.500Z,15.9
2024-05-09T20:37:56.991Z,15.9
2024-05-09T20:40:15.335Z,16
2024-05-09T20:42:27.792Z,16
2024-05-09T20:44:38.009Z,16
2024-05-09T20:46:45.680Z,16
2024-05-09T20:48:56.581Z,16.1
2024-05-09T20:51:04.363Z,16.1
2024-05-09T20:53:15.514Z,16.2
2024-05-09T20:55:25.656Z,16.2
2024-05-09T20:57:35.764Z,16.2
2024-05-09T20:59:43.341Z,16.1
2024-05-09T21:01:53.303Z,16.1
2024-05-09T21:04:01.255Z,16.1
2024-05-09T21:06:11.429Z,16.1
2024-05-09T21:08:18.683Z,16.1
2024-05-09T21:10:32.627Z,16.1
2024-05-09T21:12:43.233Z,16.1
2024-05-09T21:14:53.098Z,16.1
2024-05-09T21:17:00.512Z,16.1
2024-05-09T21:19:10.651Z,16.1
2024-05-09T21:21:17.975Z,16.1
2024-05-09T21:23:25.742Z,16.1
2024-05-09T21:25:38.197Z,16.1
2024-05-09T21:27:46.159Z,16.1
2024-05-09T21:29:56.133Z,16.1
2024-05-09T21:32:03.402Z,16.1
2024-05-09T21:34:13.619Z,16.1
2024-05-09T21:36:20.902Z,16.1
2024-05-09T21:38:30.974Z,16.1
2024-05-09T21:40:40.987Z,16
2024-05-09T21:42:51.145Z,16
2024-05-09T21:44:58.498Z,15.9
2024-05-09T21:47:08.318Z,16
2024-05-09T21:49:17.605Z,16
2024-05-09T21:51:27.544Z,15.9
2024-05-09T21:53:35.895Z,15.9
2024-05-09T21:55:52.334Z,15.9
2024-05-09T21:57:59.653Z,15.8
2024-05-09T22:00:24.477Z,15.7
2024-05-09T22:02:38.610Z,15.7
2024-05-09T22:04:48.774Z,15.7
2024-05-09T22:06:57.285Z,15.7
2024-05-09T22:09:07.131Z,15.7
2024-05-09T22:11:17.419Z,15.6
2024-05-09T22:13:28.825Z,15.6
2024-05-09T22:15:53.671Z,15.6
2024-05-09T22:18:04.037Z,15.6
2024-05-09T22:20:18.060Z,15.6
2024-05-09T22:22:49.344Z,15.6
2024-05-09T22:24:56.675Z,15.5
2024-05-09T22:27:12.003Z,15.5
2024-05-09T22:30:02.028Z,15.5
2024-05-09T22:31:47.648Z,15.5
2024-05-09T22:33:55.206Z,15.4
2024-05-09T22:36:05.406Z,15.4
2024-05-09T22:38:12.879Z,15.4
2024-05-09T22:40:28.163Z,15.3
2024-05-09T22:42:44.892Z,15.3
2024-05-09T22:44:54.886Z,15.3
2024-05-09T22:47:02.234Z,15.2
2024-05-09T22:49:10.118Z,15.2
2024-05-09T22:51:19.988Z,15.2
2024-05-09T22:53:27.243Z,15.1
2024-05-09T22:55:36.984Z,15.1
2024-05-09T22:57:46.789Z,15
2024-05-09T22:59:56.654Z,14.9
2024-05-09T23:02:04.361Z,14.9
2024-05-09T23:04:14.213Z,14.8
2024-05-09T23:06:21.598Z,14.8
2024-05-09T23:08:31.663Z,14.8
2024-05-09T23:10:39.105Z,14.8
2024-05-09T23:12:51.723Z,14.8
2024-05-09T23:14:58.952Z,14.8
2024-05-09T23:17:08.863Z,14.7
2024-05-09T23:19:16.134Z,14.7
2024-05-09T23:21:26.579Z,14.7
2024-05-09T23:23:33.991Z,14.7
2024-05-09T23:25:44.091Z,14.7
2024-05-09T23:27:53.926Z,14.8
2024-05-09T23:30:05.917Z,14.8
2024-05-09T23:32:16.339Z,14.8
2024-05-09T23:34:26.615Z,14.8
2024-05-09T23:36:34.266Z,14.8
2024-05-09T23:38:44.455Z,14.8
2024-05-09T23:40:51.761Z,14.8
2024-05-09T23:43:04.324Z,14.8
2024-05-09T23:45:11.867Z,14.8
2024-05-09T23:47:22.253Z,14.8
2024-05-09T23:49:29.511Z,14.8
2024-05-09T23:51:39.387Z,14.8
2024-05-09T23:53:46.696Z,14.8
2024-05-09T23:55:56.537Z,14.8
2024-05-09T23:58:06.471Z,14.8
